Current Weather

Luton

Luton, United Kingdom (EGGW)

Report from: Tuesday, July 16, 2024 2:50 PM BST
Current time: Tuesday, July 16, 2024 3:31 PM BST

Nearby weather – Weather history – Daily summaries
Weather forecast

Temperature18.0°C (64.4°F)
Dew point15.0°C (59.0°F)
Winds 9 kts (4.6 m/s, 10.4 mph) Northwest (320°)
Visibility6.2 mi. (10 km)
Clouds Scattered clouds 2,000 ft. (610 m)
Scattered clouds 2,600 ft. (792 m)
Ceiling: Broken clouds 3,200 ft. (975 m)
Altimeter29.83 in.Hg (1010 mB)
Relative humidity83 %
Density altitude698 ft. (213 m)
Remarks Fully automated report
Flight conditions Visual Meteorological Conditions
Raw dataEGGW 161350Z AUTO 32009KT 9999 SCT020/// SCT026/// BKN032/// //////CB 18/15 Q1010
An error has occurred. This application may no longer respond until reloaded. Reload 🗙